Prince Joy — V3TY7 — position and weather

sailwx.info

Track history (hours):
 
Tides and Currents Weather Stations Pressure Air Temp Water Temp Dewpoint Dewpoint Depression Visibility Wind Speed Wind Dir Waves Ship Positions

Prince Joy

Last reported at 2018-Apr-15 19:19 UTC. Time now 2018-Apr-21 15:30 UTC.
Position N 38°27' E 008°33'.

Length 101 m; draft 5.6 m.

Type: Cargo ship. MMSI: 312341000.

Date/timePositionNaut miles runAvg speedWind from/ knotsBaromVisibWave heightAir tempDewpointWater temp
2018-Apr-15 19:19N 38°27' E 008°33'30 8.5
2018-Apr-15 15:51N 38°36' E 009°09'3 9.3
2018-Apr-15 15:29N 38°37' E 009°13'4 9.1
2018-Apr-15 15:00N 38°38' E 009°18'146 9.6
2018-Apr-14 23:49N 38°25' E 012°24'3 8.6
2018-Apr-14 23:30N 38°24' E 012°27'5 9.1
2018-Apr-14 23:00N 38°23' E 012°33'10 9.9
2018-Apr-14 22:03N 38°21' E 012°45'210.8
2018-Apr-14 21:49N 38°20' E 012°48'311.0
2018-Apr-14 21:30N 38°19' E 012°52'611.1
2018-Apr-14 21:00N 38°17' E 012°59'611.2
2018-Apr-14 20:30N 38°16' E 013°06'5 9.6
2018-Apr-14 20:00N 38°16' E 013°12'5 9.0
2018-Apr-14 19:30N 38°16' E 013°18'4 8.6
2018-Apr-14 19:00N 38°16' E 013°23'4 8.3
2018-Apr-14 18:30N 38°16' E 013°28'4 8.3
2018-Apr-14 18:00N 38°16' E 013°34'4 8.2
2018-Apr-14 17:30N 38°16' E 013°39'4 8.4
2018-Apr-14 17:00N 38°16' E 013°44'4 8.6
2018-Apr-14 16:30N 38°17' E 013°50'5 8.9
2018-Apr-14 15:59N 38°17' E 013°56'4 8.8
2018-Apr-14 15:30N 38°17' E 014°01'7 8.9
2018-Apr-14 14:46N 38°17' E 014°09'3 8.8
2018-Apr-14 14:26N 38°17' E 014°13'5 8.8
2018-Apr-14 13:52N 38°17' E 014°19'16 8.7
2018-Apr-14 12:00N 38°18' E 014°40'4 8.8
2018-Apr-14 11:30N 38°18' E 014°46'5 8.6
2018-Apr-14 10:57N 38°18' E 014°52'6 8.5
2018-Apr-14 10:18N 38°18' E 014°59'2 8.4
2018-Apr-14 10:00N 38°18' E 015°02'4 8.4
2018-Apr-14 09:29N 38°19' E 015°07'4 8.5
2018-Apr-14 08:59N 38°19' E 015°13'4 8.4
2018-Apr-14 08:30N 38°19' E 015°18'4 8.7
2018-Apr-14 08:00N 38°19' E 015°24'4 8.7
2018-Apr-14 07:29N 38°19' E 015°29'4 8.3
2018-Apr-14 07:00N 38°19' E 015°34'4 8.8
2018-Apr-14 06:30N 38°18' E 015°40'3 4.9
2018-Apr-14 06:00N 38°15' E 015°40'3 6.7
2018-Apr-14 05:30N 38°13' E 015°37'4 8.5
2018-Apr-14 05:00N 38°09' E 015°37'4 7.7
2018-Apr-14 04:30N 38°05' E 015°36'4 8.8
2018-Apr-14 04:00N 38°00' E 015°36'4 7.9
2018-Apr-14 03:29N 37°57' E 015°40'4 8.5
2018-Apr-14 02:59N 37°54' E 015°44'4 8.7
2018-Apr-14 02:30N 37°54' E 015°49'  
2018-Apr-11 17:34N 44°31' E 013°04'110.2
2018-Apr-11 17:30N 44°32' E 013°04'1010.2
2018-Apr-11 16:33N 44°41' E 012°59'010.1
2018-Apr-11 16:30N 44°42' E 012°59'510.0
2018-Apr-11 15:58N 44°47' E 012°57'5 9.9
2018-Apr-11 15:30N 44°51' E 012°53'510.2
2018-Apr-11 14:58N 44°55' E 012°50'510.1
2018-Apr-11 14:30N 44°60' E 012°46'510.0
2018-Apr-11 14:00N 45°04' E 012°43'5 9.6
2018-Apr-11 13:30N 45°07' E 012°38'510.0
2018-Apr-11 13:00N 45°10' E 012°32'510.5
2018-Apr-11 12:30N 45°12' E 012°25'5 9.8
2018-Apr-11 12:00N 45°14' E 012°19'3 5.1
2018-Apr-11 11:29N 45°13' E 012°16'0 0.0
2018-Apr-11 11:00N 45°13' E 012°16'0 0.0
2018-Apr-11 10:30N 45°13' E 012°16'0 0.0
2018-Apr-11 10:00N 45°13' E 012°16'0 0.0
2018-Apr-11 09:27N 45°13' E 012°16'0 0.0
2018-Apr-11 08:57N 45°13' E 012°16'0 0.0
2018-Apr-11 08:30N 45°13' E 012°16'0 0.0
2018-Apr-11 08:00N 45°13' E 012°16'0 0.0
2018-Apr-11 07:30N 45°13' E 012°16'0 0.0
2018-Apr-11 07:00N 45°13' E 012°16'0 0.0
2018-Apr-11 06:30N 45°13' E 012°16'0 0.0
2018-Apr-11 05:42N 45°13' E 012°16'0 0.0
2018-Apr-11 05:30N 45°13' E 012°16'0 0.0
2018-Apr-11 05:00N 45°13' E 012°16'0 0.0
2018-Apr-11 04:30N 45°13' E 012°16'0 0.0
2018-Apr-11 04:00N 45°13' E 012°16'0 0.0
2018-Apr-11 03:30N 45°13' E 012°16'0 0.0
2018-Apr-11 03:00N 45°13' E 012°16'0 0.0
2018-Apr-11 02:30N 45°13' E 012°16'0 0.0
2018-Apr-11 02:00N 45°13' E 012°16'0 0.0
2018-Apr-11 01:30N 45°13' E 012°16'0 0.0
2018-Apr-11 01:00N 45°13' E 012°16'0 0.0
2018-Apr-11 00:30N 45°13' E 012°16'0 0.0
2018-Apr-11 00:00N 45°13' E 012°16'0 0.0
2018-Apr-10 23:30N 45°13' E 012°16'0 0.0
2018-Apr-10 23:00N 45°13' E 012°16'0 0.0
2018-Apr-10 22:30N 45°13' E 012°16'0 0.0
2018-Apr-10 21:57N 45°13' E 012°16'0 0.0
2018-Apr-10 21:27N 45°13' E 012°16'0 0.0
2018-Apr-10 20:57N 45°13' E 012°16'0 0.0
2018-Apr-10 20:27N 45°13' E 012°16'0 0.0
2018-Apr-10 20:00N 45°13' E 012°16'0 0.0
2018-Apr-10 19:30N 45°13' E 012°16'0 0.0
2018-Apr-10 19:00N 45°13' E 012°16'0 0.0
2018-Apr-10 18:30N 45°13' E 012°16'0 0.0
2018-Apr-10 18:00N 45°13' E 012°16'0 0.0
2018-Apr-10 17:30N 45°13' E 012°16'0 0.0
2018-Apr-10 17:00N 45°13' E 012°16'0 0.0
2018-Apr-10 16:30N 45°13' E 012°16'0 0.0
2018-Apr-10 16:00N 45°13' E 012°16'0 0.0
2018-Apr-10 15:30N 45°13' E 012°16'0 0.0
2018-Apr-10 14:57N 45°13' E 012°16'0 0.0
2018-Apr-10 14:30N 45°13' E 012°16'0 0.0
2018-Apr-10 14:00N 45°13' E 012°16'0 0.0
2018-Apr-10 13:30N 45°13' E 012°16'0 0.0
2018-Apr-10 13:00N 45°13' E 012°16'0 0.0
2018-Apr-10 12:30N 45°13' E 012°16'0 0.0
2018-Apr-10 12:00N 45°13' E 012°16'0 0.0
2018-Apr-10 11:30N 45°13' E 012°16'0 0.0
2018-Apr-10 11:00N 45°13' E 012°16'0 0.0
2018-Apr-10 10:30N 45°13' E 012°16'0 0.0
2018-Apr-10 10:00N 45°13' E 012°16'0 0.0
2018-Apr-10 09:30N 45°13' E 012°16'0 0.0
2018-Apr-10 08:51N 45°13' E 012°16'0 0.0
2018-Apr-10 08:27N 45°13' E 012°16'0 0.0
2018-Apr-10 08:00N 45°13' E 012°16'0 0.0
2018-Apr-10 07:30N 45°13' E 012°16'0 0.0
2018-Apr-10 06:57N 45°13' E 012°16'0 0.0
2018-Apr-10 06:21N 45°13' E 012°16'0 0.0
2018-Apr-10 06:00N 45°13' E 012°16'0 0.0
2018-Apr-10 05:27N 45°13' E 012°16'0 0.0
2018-Apr-10 05:00N 45°13' E 012°16'0 0.0
2018-Apr-10 04:30N 45°13' E 012°16'0 0.0
2018-Apr-10 03:57N 45°13' E 012°16'0 0.0
2018-Apr-10 03:27N 45°13' E 012°16'0 0.0
2018-Apr-10 02:57N 45°13' E 012°16'0 0.0
2018-Apr-10 02:30N 45°13' E 012°16'0 0.0
2018-Apr-10 02:00N 45°13' E 012°16'0 0.0
2018-Apr-10 01:27N 45°13' E 012°16'0 0.0
2018-Apr-10 01:00N 45°13' E 012°16'0 0.0
2018-Apr-10 00:27N 45°13' E 012°16'0 0.0
2018-Apr-10 00:00N 45°13' E 012°16'0 0.0
2018-Apr-09 23:30N 45°13' E 012°16'0 0.0
2018-Apr-09 22:57N 45°13' E 012°16'0 0.0
2018-Apr-09 22:30N 45°13' E 012°16'0 0.0
2018-Apr-09 22:00N 45°13' E 012°16'0 0.0
2018-Apr-09 21:30N 45°13' E 012°16'0 0.0
2018-Apr-09 21:00N 45°13' E 012°16'0 0.0
2018-Apr-09 20:30N 45°13' E 012°16'0 0.0
2018-Apr-09 20:00N 45°13' E 012°16'0 0.0
2018-Apr-09 19:27N 45°13' E 012°16'0 0.0
2018-Apr-09 19:00N 45°13' E 012°16'0 0.0
2018-Apr-09 18:24N 45°13' E 012°16'0 0.0
2018-Apr-09 18:00N 45°13' E 012°16'0 0.0
2018-Apr-09 17:30N 45°13' E 012°16'0 0.0
2018-Apr-09 17:00N 45°13' E 012°16'0 0.0
2018-Apr-09 16:30N 45°13' E 012°16'0 0.0
2018-Apr-09 16:00N 45°13' E 012°16'0 0.0
2018-Apr-09 15:27N 45°13' E 012°16'0 0.0
2018-Apr-09 15:00N 45°13' E 012°16'0 0.0
2018-Apr-09 14:27N 45°13' E 012°16'0 0.0
2018-Apr-09 14:00N 45°13' E 012°16'0 0.0
2018-Apr-09 13:30N 45°13' E 012°16'0 0.0
2018-Apr-09 12:57N 45°13' E 012°16'0 0.0
2018-Apr-09 12:30N 45°13' E 012°16'0 0.0
2018-Apr-09 12:00N 45°13' E 012°16'0 0.0
2018-Apr-09 11:27N 45°13' E 012°16'0 0.0
2018-Apr-09 10:57N 45°13' E 012°16'0 0.0
2018-Apr-09 10:30N 45°13' E 012°16'0 0.0
2018-Apr-09 10:00N 45°13' E 012°16'0 0.0
2018-Apr-09 09:30N 45°13' E 012°16'0 0.0
2018-Apr-09 09:00N 45°13' E 012°16'0 0.0
2018-Apr-09 08:27N 45°13' E 012°16'0 0.0
2018-Apr-09 08:00N 45°13' E 012°16'0 0.0
2018-Apr-09 07:30N 45°13' E 012°16'0 0.0
2018-Apr-09 07:00N 45°13' E 012°16'0 0.0
2018-Apr-09 06:30N 45°13' E 012°16'0 0.0
2018-Apr-09 06:00N 45°13' E 012°16'0 0.0
2018-Apr-09 05:27N 45°13' E 012°16'0 0.0
2018-Apr-09 05:00N 45°13' E 012°16'0 0.0
2018-Apr-09 04:30N 45°13' E 012°16'0 0.0
2018-Apr-09 03:57N 45°13' E 012°16'0 0.0
2018-Apr-09 03:30N 45°13' E 012°16'0 0.0
2018-Apr-09 03:00N 45°13' E 012°16'0 0.0
2018-Apr-09 02:27N 45°13' E 012°16'0 0.0
2018-Apr-09 02:00N 45°13' E 012°16'0 0.0
2018-Apr-09 01:30N 45°13' E 012°16'0 0.0
2018-Apr-09 01:00N 45°13' E 012°16'0 0.0
2018-Apr-09 00:30N 45°13' E 012°16'0 0.0
2018-Apr-08 23:57N 45°13' E 012°16'0 0.0
2018-Apr-08 23:30N 45°13' E 012°16'0 0.0
2018-Apr-08 22:57N 45°13' E 012°16'0 0.0
2018-Apr-08 22:30N 45°13' E 012°16'0 0.0
2018-Apr-08 21:57N 45°13' E 012°16'0 0.0
2018-Apr-08 21:24N 45°13' E 012°16'0 0.0
2018-Apr-08 21:00N 45°13' E 012°16'0 0.0
2018-Apr-08 20:30N 45°13' E 012°16'0 0.0
2018-Apr-08 20:00N 45°13' E 012°16'0 0.0
2018-Apr-08 19:30N 45°13' E 012°16'0 0.0
2018-Apr-08 19:00N 45°13' E 012°16'0 0.0
2018-Apr-08 18:30N 45°13' E 012°16'0 0.0
2018-Apr-08 18:00N 45°13' E 012°16'0 0.0
2018-Apr-08 17:30N 45°13' E 012°16'0 0.0
2018-Apr-08 17:00N 45°13' E 012°16'0 0.0
2018-Apr-08 16:30N 45°13' E 012°16'0 0.0
2018-Apr-08 16:00N 45°13' E 012°16'0 0.0
2018-Apr-08 15:30N 45°13' E 012°16'0 0.0
2018-Apr-08 15:00N 45°13' E 012°16'0 0.0
2018-Apr-08 14:30N 45°13' E 012°16'0 0.0
2018-Apr-08 14:00N 45°13' E 012°16'0 0.0
2018-Apr-08 13:30N 45°13' E 012°16'0 0.0
2018-Apr-08 13:00N 45°13' E 012°16'0 0.0
2018-Apr-08 12:30N 45°13' E 012°16'0 0.0
2018-Apr-08 12:00N 45°13' E 012°16'0 0.0
2018-Apr-08 11:30N 45°13' E 012°16'0 0.0
2018-Apr-08 11:00N 45°13' E 012°16'0 0.0
2018-Apr-08 10:30N 45°13' E 012°16'0 0.0
2018-Apr-08 10:00N 45°13' E 012°16'0 0.0
2018-Apr-08 09:30N 45°13' E 012°16'0 0.0
2018-Apr-08 09:00N 45°13' E 012°16'0 0.0
2018-Apr-08 08:30N 45°13' E 012°16'0 0.0
2018-Apr-08 08:00N 45°13' E 012°16'0 0.0
2018-Apr-08 07:30N 45°13' E 012°16'0 0.0
2018-Apr-08 07:00N 45°13' E 012°16'0 0.0
2018-Apr-08 06:30N 45°13' E 012°16'0 0.0
2018-Apr-08 06:00N 45°13' E 012°16'0 0.0
2018-Apr-08 05:30N 45°13' E 012°16'0 0.0
2018-Apr-08 05:00N 45°13' E 012°16'0 0.0
2018-Apr-08 04:30N 45°13' E 012°16'0 0.0
2018-Apr-08 04:00N 45°13' E 012°16'0 0.0
2018-Apr-08 03:30N 45°13' E 012°16'0 0.0
2018-Apr-08 03:00N 45°13' E 012°16'0 0.0
2018-Apr-08 02:27N 45°13' E 012°16'0 0.0
2018-Apr-08 02:00N 45°13' E 012°16'0 0.0
2018-Apr-08 01:27N 45°13' E 012°16'0 0.0
2018-Apr-08 00:57N 45°13' E 012°16'0 0.0
2018-Apr-08 00:27N 45°13' E 012°16'0 0.0
2018-Apr-07 23:57N 45°13' E 012°16'0 0.0
2018-Apr-07 23:27N 45°13' E 012°16'0 0.0
2018-Apr-07 22:57N 45°13' E 012°16'0 0.0
2018-Apr-07 22:27N 45°13' E 012°16'0 0.0
2018-Apr-07 21:48N 45°13' E 012°16'0 0.0
2018-Apr-07 21:27N 45°13' E 012°16'0 0.0
2018-Apr-07 20:57N 45°13' E 012°16'0 0.0
2018-Apr-07 20:27N 45°13' E 012°16'0 0.0
2018-Apr-07 19:57N 45°13' E 012°16'0 0.0
2018-Apr-07 19:27N 45°13' E 012°16'0 0.0
2018-Apr-07 18:51N 45°13' E 012°16'0 0.0
2018-Apr-07 18:30N 45°13' E 012°16'0 0.0
2018-Apr-07 18:00N 45°13' E 012°16'0 0.0
2018-Apr-07 17:30N 45°13' E 012°16'0 0.0
2018-Apr-07 17:00N 45°13' E 012°16'0 0.0
2018-Apr-07 16:30N 45°13' E 012°16'0 0.0
2018-Apr-07 16:00N 45°13' E 012°16'0 0.0
2018-Apr-07 15:30N 45°13' E 012°16'0 0.0
2018-Apr-07 15:00N 45°13' E 012°16'0 0.0
2018-Apr-07 14:30N 45°13' E 012°16'0 0.0
2018-Apr-07 14:00N 45°13' E 012°16'0 0.0
2018-Apr-07 13:30N 45°13' E 012°16'0 0.0
2018-Apr-07 13:00N 45°13' E 012°16'0 0.0
2018-Apr-07 12:30N 45°13' E 012°16'0 0.0
2018-Apr-07 12:00N 45°13' E 012°16'0 0.0
2018-Apr-07 11:30N 45°13' E 012°16'0 0.0
2018-Apr-07 11:00N 45°13' E 012°16'0 0.0
2018-Apr-07 10:30N 45°13' E 012°16'0 0.0
2018-Apr-07 10:00N 45°13' E 012°16'0 0.0
2018-Apr-07 09:30N 45°13' E 012°16'0 0.0
2018-Apr-07 09:00N 45°13' E 012°16'0 0.0
2018-Apr-07 08:30N 45°13' E 012°16'0 0.0
2018-Apr-07 08:00N 45°13' E 012°16'0 0.0
2018-Apr-07 07:30N 45°13' E 012°16'0 0.0
2018-Apr-07 07:00N 45°13' E 012°16'0 0.0
2018-Apr-07 06:30N 45°13' E 012°16'0 0.0
2018-Apr-07 06:00N 45°13' E 012°16'0 0.0
2018-Apr-07 05:30N 45°13' E 012°16'0 0.0
2018-Apr-07 05:00N 45°13' E 012°16'0 0.0
2018-Apr-07 04:30N 45°13' E 012°16'0 0.0
2018-Apr-07 04:00N 45°13' E 012°16'0 0.0
2018-Apr-07 03:30N 45°13' E 012°16'0 0.0
2018-Apr-07 02:57N 45°13' E 012°16'0 0.0
2018-Apr-07 02:30N 45°13' E 012°16'0 0.0
2018-Apr-07 02:00N 45°13' E 012°16'0 0.0
2018-Apr-07 01:27N 45°13' E 012°16'0 0.0
2018-Apr-07 01:00N 45°13' E 012°16'0 0.0
2018-Apr-07 00:24N 45°13' E 012°16'0 0.0
2018-Apr-06 23:57N 45°13' E 012°16'0 0.0
2018-Apr-06 23:30N 45°13' E 012°16'0 0.0
2018-Apr-06 22:57N 45°13' E 012°16'0 0.0
2018-Apr-06 22:30N 45°13' E 012°16'0 0.0
2018-Apr-06 21:57N 45°13' E 012°16'0 0.0
2018-Apr-06 21:30N 45°13' E 012°16'0 0.0
2018-Apr-06 20:57N 45°13' E 012°16'0 0.0
2018-Apr-06 20:27N 45°13' E 012°16'0 0.0
2018-Apr-06 20:00N 45°13' E 012°16'0 0.0
2018-Apr-06 19:27N 45°13' E 012°16'0 0.0
2018-Apr-06 19:00N 45°13' E 012°16'0 0.0
2018-Apr-06 18:27N 45°13' E 012°16'0 0.0
2018-Apr-06 18:00N 45°13' E 012°16'0 0.0
2018-Apr-06 17:30N 45°13' E 012°16'0 0.0
2018-Apr-06 17:00N 45°13' E 012°16'0 0.0
2018-Apr-06 16:30N 45°13' E 012°16'0 0.0
2018-Apr-06 16:00N 45°13' E 012°16'0 0.0
2018-Apr-06 15:30N 45°13' E 012°16'0 0.0
2018-Apr-06 15:00N 45°13' E 012°16'0 0.0
2018-Apr-06 14:27N 45°13' E 012°16'0 0.0
2018-Apr-06 14:00N 45°13' E 012°16'0 0.0
2018-Apr-06 13:30N 45°13' E 012°16'0 0.0
2018-Apr-06 12:57N 45°13' E 012°16'0 0.0
2018-Apr-06 12:30N 45°13' E 012°16'0 0.0
2018-Apr-06 12:00N 45°13' E 012°16'0 0.0
2018-Apr-06 11:30N 45°13' E 012°16'0 0.2
2018-Apr-06 11:00N 45°13' E 012°16'2 5.0
2018-Apr-06 10:30N 45°14' E 012°19'2 5.0
2018-Apr-06 10:00N 45°14' E 012°22'0 0.1
2018-Apr-06 09:28N 45°15' E 012°22'0 0.0
2018-Apr-06 08:58N 45°15' E 012°22'0 0.0
2018-Apr-06 08:28N 45°15' E 012°22'0 0.0
2018-Apr-06 07:58N 45°15' E 012°22'0 0.0
2018-Apr-06 07:28N 45°15' E 012°22'0 0.0
2018-Apr-06 06:55N 45°15' E 012°22'0 0.0
2018-Apr-06 06:28N 45°15' E 012°22'0 0.0
2018-Apr-06 05:58N 45°14' E 012°22'0 0.0
2018-Apr-06 05:28N 45°14' E 012°22'0 0.0
2018-Apr-06 04:58N 45°14' E 012°22'0 0.1
2018-Apr-06 04:28N 45°14' E 012°22'0 0.1
2018-Apr-06 03:55N 45°14' E 012°22'0 0.0
2018-Apr-06 03:25N 45°14' E 012°22'0 0.0
2018-Apr-06 02:55N 45°14' E 012°22'0 0.0
2018-Apr-06 02:28N 45°14' E 012°22'0 0.0
2018-Apr-06 01:55N 45°14' E 012°22'0 0.0
2018-Apr-06 01:28N 45°14' E 012°22'0 0.0
2018-Apr-06 00:58N 45°14' E 012°22'0 0.0
2018-Apr-06 00:28N 45°14' E 012°22'0 0.0
2018-Apr-05 23:58N 45°14' E 012°22'0 0.0
2018-Apr-05 23:28N 45°14' E 012°22'0 0.1
2018-Apr-05 22:58N 45°14' E 012°22'0 0.0
2018-Apr-05 22:28N 45°15' E 012°22'0 0.0
2018-Apr-05 21:58N 45°15' E 012°22'0 0.1
2018-Apr-05 21:28N 45°15' E 012°22'0 0.0
2018-Apr-05 20:55N 45°15' E 012°22'0 0.0
2018-Apr-05 20:28N 45°15' E 012°22'0 0.2
2018-Apr-05 19:58N 45°15' E 012°22'2 5.0
2018-Apr-05 19:30N 45°14' E 012°25'  
Track history (hours):
 
Tides and Currents Weather Stations Pressure Air Temp Water Temp Dewpoint Dewpoint Depression Visibility Wind Speed Wind Dir Waves Ship Positions

Prince Joy

Last reported at 2018-Apr-15 19:19 UTC. Time now 2018-Apr-21 15:30 UTC.
Position N 38°27' E 008°33'.

Length 101 m; draft 5.6 m.

Type: Cargo ship. MMSI: 312341000.

Date/timePositionNaut miles runAvg speedWind from/ knotsBaromVisibWave heightAir tempDewpointWater temp
2018-Apr-15 19:19N 38°27' E 008°33'30 8.5
2018-Apr-15 15:51N 38°36' E 009°09'3 9.3
2018-Apr-15 15:29N 38°37' E 009°13'4 9.1
2018-Apr-15 15:00N 38°38' E 009°18'146 9.6
2018-Apr-14 23:49N 38°25' E 012°24'3 8.6
2018-Apr-14 23:30N 38°24' E 012°27'5 9.1
2018-Apr-14 23:00N 38°23' E 012°33'10 9.9
2018-Apr-14 22:03N 38°21' E 012°45'210.8
2018-Apr-14 21:49N 38°20' E 012°48'311.0
2018-Apr-14 21:30N 38°19' E 012°52'611.1
2018-Apr-14 21:00N 38°17' E 012°59'611.2
2018-Apr-14 20:30N 38°16' E 013°06'5 9.6
2018-Apr-14 20:00N 38°16' E 013°12'5 9.0
2018-Apr-14 19:30N 38°16' E 013°18'4 8.6
2018-Apr-14 19:00N 38°16' E 013°23'4 8.3
2018-Apr-14 18:30N 38°16' E 013°28'4 8.3
2018-Apr-14 18:00N 38°16' E 013°34'4 8.2
2018-Apr-14 17:30N 38°16' E 013°39'4 8.4
2018-Apr-14 17:00N 38°16' E 013°44'4 8.6
2018-Apr-14 16:30N 38°17' E 013°50'5 8.9
2018-Apr-14 15:59N 38°17' E 013°56'4 8.8
2018-Apr-14 15:30N 38°17' E 014°01'7 8.9
2018-Apr-14 14:46N 38°17' E 014°09'3 8.8
2018-Apr-14 14:26N 38°17' E 014°13'5 8.8
2018-Apr-14 13:52N 38°17' E 014°19'16 8.7
2018-Apr-14 12:00N 38°18' E 014°40'4 8.8
2018-Apr-14 11:30N 38°18' E 014°46'5 8.6
2018-Apr-14 10:57N 38°18' E 014°52'6 8.5
2018-Apr-14 10:18N 38°18' E 014°59'2 8.4
2018-Apr-14 10:00N 38°18' E 015°02'4 8.4
2018-Apr-14 09:29N 38°19' E 015°07'4 8.5
2018-Apr-14 08:59N 38°19' E 015°13'4 8.4
2018-Apr-14 08:30N 38°19' E 015°18'4 8.7
2018-Apr-14 08:00N 38°19' E 015°24'4 8.7
2018-Apr-14 07:29N 38°19' E 015°29'4 8.3
2018-Apr-14 07:00N 38°19' E 015°34'4 8.8
2018-Apr-14 06:30N 38°18' E 015°40'3 4.9
2018-Apr-14 06:00N 38°15' E 015°40'3 6.7
2018-Apr-14 05:30N 38°13' E 015°37'4 8.5
2018-Apr-14 05:00N 38°09' E 015°37'4 7.7
2018-Apr-14 04:30N 38°05' E 015°36'4 8.8
2018-Apr-14 04:00N 38°00' E 015°36'4 7.9
2018-Apr-14 03:29N 37°57' E 015°40'4 8.5
2018-Apr-14 02:59N 37°54' E 015°44'4 8.7
2018-Apr-14 02:30N 37°54' E 015°49'  
2018-Apr-11 17:34N 44°31' E 013°04'110.2
2018-Apr-11 17:30N 44°32' E 013°04'1010.2
2018-Apr-11 16:33N 44°41' E 012°59'010.1
2018-Apr-11 16:30N 44°42' E 012°59'510.0
2018-Apr-11 15:58N 44°47' E 012°57'5 9.9
2018-Apr-11 15:30N 44°51' E 012°53'510.2
2018-Apr-11 14:58N 44°55' E 012°50'510.1
2018-Apr-11 14:30N 44°60' E 012°46'510.0
2018-Apr-11 14:00N 45°04' E 012°43'5 9.6
2018-Apr-11 13:30N 45°07' E 012°38'510.0
2018-Apr-11 13:00N 45°10' E 012°32'510.5
2018-Apr-11 12:30N 45°12' E 012°25'5 9.8
2018-Apr-11 12:00N 45°14' E 012°19'3 5.1
2018-Apr-11 11:29N 45°13' E 012°16'0 0.0
2018-Apr-11 11:00N 45°13' E 012°16'0 0.0
2018-Apr-11 10:30N 45°13' E 012°16'0 0.0
2018-Apr-11 10:00N 45°13' E 012°16'0 0.0
2018-Apr-11 09:27N 45°13' E 012°16'0 0.0
2018-Apr-11 08:57N 45°13' E 012°16'0 0.0
2018-Apr-11 08:30N 45°13' E 012°16'0 0.0
2018-Apr-11 08:00N 45°13' E 012°16'0 0.0
2018-Apr-11 07:30N 45°13' E 012°16'0 0.0
2018-Apr-11 07:00N 45°13' E 012°16'0 0.0
2018-Apr-11 06:30N 45°13' E 012°16'0 0.0
2018-Apr-11 05:42N 45°13' E 012°16'0 0.0
2018-Apr-11 05:30N 45°13' E 012°16'0 0.0
2018-Apr-11 05:00N 45°13' E 012°16'0 0.0
2018-Apr-11 04:30N 45°13' E 012°16'0 0.0
2018-Apr-11 04:00N 45°13' E 012°16'0 0.0
2018-Apr-11 03:30N 45°13' E 012°16'0 0.0
2018-Apr-11 03:00N 45°13' E 012°16'0 0.0
2018-Apr-11 02:30N 45°13' E 012°16'0 0.0
2018-Apr-11 02:00N 45°13' E 012°16'0 0.0
2018-Apr-11 01:30N 45°13' E 012°16'0 0.0
2018-Apr-11 01:00N 45°13' E 012°16'0 0.0
2018-Apr-11 00:30N 45°13' E 012°16'0 0.0
2018-Apr-11 00:00N 45°13' E 012°16'0 0.0
2018-Apr-10 23:30N 45°13' E 012°16'0 0.0
2018-Apr-10 23:00N 45°13' E 012°16'0 0.0
2018-Apr-10 22:30N 45°13' E 012°16'0 0.0
2018-Apr-10 21:57N 45°13' E 012°16'0 0.0
2018-Apr-10 21:27N 45°13' E 012°16'0 0.0
2018-Apr-10 20:57N 45°13' E 012°16'0 0.0
2018-Apr-10 20:27N 45°13' E 012°16'0 0.0
2018-Apr-10 20:00N 45°13' E 012°16'0 0.0
2018-Apr-10 19:30N 45°13' E 012°16'0 0.0
2018-Apr-10 19:00N 45°13' E 012°16'0 0.0
2018-Apr-10 18:30N 45°13' E 012°16'0 0.0
2018-Apr-10 18:00N 45°13' E 012°16'0 0.0
2018-Apr-10 17:30N 45°13' E 012°16'0 0.0
2018-Apr-10 17:00N 45°13' E 012°16'0 0.0
2018-Apr-10 16:30N 45°13' E 012°16'0 0.0
2018-Apr-10 16:00N 45°13' E 012°16'0 0.0
2018-Apr-10 15:30N 45°13' E 012°16'0 0.0
2018-Apr-10 14:57N 45°13' E 012°16'0 0.0
2018-Apr-10 14:30N 45°13' E 012°16'0 0.0
2018-Apr-10 14:00N 45°13' E 012°16'0 0.0
2018-Apr-10 13:30N 45°13' E 012°16'0 0.0
2018-Apr-10 13:00N 45°13' E 012°16'0 0.0
2018-Apr-10 12:30N 45°13' E 012°16'0 0.0
2018-Apr-10 12:00N 45°13' E 012°16'0 0.0
2018-Apr-10 11:30N 45°13' E 012°16'0 0.0
2018-Apr-10 11:00N 45°13' E 012°16'0 0.0
2018-Apr-10 10:30N 45°13' E 012°16'0 0.0
2018-Apr-10 10:00N 45°13' E 012°16'0 0.0
2018-Apr-10 09:30N 45°13' E 012°16'0 0.0
2018-Apr-10 08:51N 45°13' E 012°16'0 0.0
2018-Apr-10 08:27N 45°13' E 012°16'0 0.0
2018-Apr-10 08:00N 45°13' E 012°16'0 0.0
2018-Apr-10 07:30N 45°13' E 012°16'0 0.0
2018-Apr-10 06:57N 45°13' E 012°16'0 0.0
2018-Apr-10 06:21N 45°13' E 012°16'0 0.0
2018-Apr-10 06:00N 45°13' E 012°16'0 0.0
2018-Apr-10 05:27N 45°13' E 012°16'0 0.0
2018-Apr-10 05:00N 45°13' E 012°16'0 0.0
2018-Apr-10 04:30N 45°13' E 012°16'0 0.0
2018-Apr-10 03:57N 45°13' E 012°16'0 0.0
2018-Apr-10 03:27N 45°13' E 012°16'0 0.0
2018-Apr-10 02:57N 45°13' E 012°16'0 0.0
2018-Apr-10 02:30N 45°13' E 012°16'0 0.0
2018-Apr-10 02:00N 45°13' E 012°16'0 0.0
2018-Apr-10 01:27N 45°13' E 012°16'0 0.0
2018-Apr-10 01:00N 45°13' E 012°16'0 0.0
2018-Apr-10 00:27N 45°13' E 012°16'0 0.0
2018-Apr-10 00:00N 45°13' E 012°16'0 0.0
2018-Apr-09 23:30N 45°13' E 012°16'0 0.0
2018-Apr-09 22:57N 45°13' E 012°16'0 0.0
2018-Apr-09 22:30N 45°13' E 012°16'0 0.0
2018-Apr-09 22:00N 45°13' E 012°16'0 0.0
2018-Apr-09 21:30N 45°13' E 012°16'0 0.0
2018-Apr-09 21:00N 45°13' E 012°16'0 0.0
2018-Apr-09 20:30N 45°13' E 012°16'0 0.0
2018-Apr-09 20:00N 45°13' E 012°16'0 0.0
2018-Apr-09 19:27N 45°13' E 012°16'0 0.0
2018-Apr-09 19:00N 45°13' E 012°16'0 0.0
2018-Apr-09 18:24N 45°13' E 012°16'0 0.0
2018-Apr-09 18:00N 45°13' E 012°16'0 0.0
2018-Apr-09 17:30N 45°13' E 012°16'0 0.0
2018-Apr-09 17:00N 45°13' E 012°16'0 0.0
2018-Apr-09 16:30N 45°13' E 012°16'0 0.0
2018-Apr-09 16:00N 45°13' E 012°16'0 0.0
2018-Apr-09 15:27N 45°13' E 012°16'0 0.0
2018-Apr-09 15:00N 45°13' E 012°16'0 0.0
2018-Apr-09 14:27N 45°13' E 012°16'0 0.0
2018-Apr-09 14:00N 45°13' E 012°16'0 0.0
2018-Apr-09 13:30N 45°13' E 012°16'0 0.0
2018-Apr-09 12:57N 45°13' E 012°16'0 0.0
2018-Apr-09 12:30N 45°13' E 012°16'0 0.0
2018-Apr-09 12:00N 45°13' E 012°16'0 0.0
2018-Apr-09 11:27N 45°13' E 012°16'0 0.0
2018-Apr-09 10:57N 45°13' E 012°16'0 0.0
2018-Apr-09 10:30N 45°13' E 012°16'0 0.0
2018-Apr-09 10:00N 45°13' E 012°16'0 0.0
2018-Apr-09 09:30N 45°13' E 012°16'0 0.0
2018-Apr-09 09:00N 45°13' E 012°16'0 0.0
2018-Apr-09 08:27N 45°13' E 012°16'0 0.0
2018-Apr-09 08:00N 45°13' E 012°16'0 0.0
2018-Apr-09 07:30N 45°13' E 012°16'0 0.0
2018-Apr-09 07:00N 45°13' E 012°16'0 0.0
2018-Apr-09 06:30N 45°13' E 012°16'0 0.0
2018-Apr-09 06:00N 45°13' E 012°16'0 0.0
2018-Apr-09 05:27N 45°13' E 012°16'0 0.0
2018-Apr-09 05:00N 45°13' E 012°16'0 0.0
2018-Apr-09 04:30N 45°13' E 012°16'0 0.0
2018-Apr-09 03:57N 45°13' E 012°16'0 0.0
2018-Apr-09 03:30N 45°13' E 012°16'0 0.0
2018-Apr-09 03:00N 45°13' E 012°16'0 0.0
2018-Apr-09 02:27N 45°13' E 012°16'0 0.0
2018-Apr-09 02:00N 45°13' E 012°16'0 0.0
2018-Apr-09 01:30N 45°13' E 012°16'0 0.0
2018-Apr-09 01:00N 45°13' E 012°16'0 0.0
2018-Apr-09 00:30N 45°13' E 012°16'0 0.0
2018-Apr-08 23:57N 45°13' E 012°16'0 0.0
2018-Apr-08 23:30N 45°13' E 012°16'0 0.0
2018-Apr-08 22:57N 45°13' E 012°16'0 0.0
2018-Apr-08 22:30N 45°13' E 012°16'0 0.0
2018-Apr-08 21:57N 45°13' E 012°16'0 0.0
2018-Apr-08 21:24N 45°13' E 012°16'0 0.0
2018-Apr-08 21:00N 45°13' E 012°16'0 0.0
2018-Apr-08 20:30N 45°13' E 012°16'0 0.0
2018-Apr-08 20:00N 45°13' E 012°16'0 0.0
2018-Apr-08 19:30N 45°13' E 012°16'0 0.0
2018-Apr-08 19:00N 45°13' E 012°16'0 0.0
2018-Apr-08 18:30N 45°13' E 012°16'0 0.0
2018-Apr-08 18:00N 45°13' E 012°16'0 0.0
2018-Apr-08 17:30N 45°13' E 012°16'0 0.0
2018-Apr-08 17:00N 45°13' E 012°16'0 0.0
2018-Apr-08 16:30N 45°13' E 012°16'0 0.0
2018-Apr-08 16:00N 45°13' E 012°16'0 0.0
2018-Apr-08 15:30N 45°13' E 012°16'0 0.0
2018-Apr-08 15:00N 45°13' E 012°16'0 0.0
2018-Apr-08 14:30N 45°13' E 012°16'0 0.0
2018-Apr-08 14:00N 45°13' E 012°16'0 0.0
2018-Apr-08 13:30N 45°13' E 012°16'0 0.0
2018-Apr-08 13:00N 45°13' E 012°16'0 0.0
2018-Apr-08 12:30N 45°13' E 012°16'0 0.0
2018-Apr-08 12:00N 45°13' E 012°16'0 0.0
2018-Apr-08 11:30N 45°13' E 012°16'0 0.0
2018-Apr-08 11:00N 45°13' E 012°16'0 0.0
2018-Apr-08 10:30N 45°13' E 012°16'0 0.0
2018-Apr-08 10:00N 45°13' E 012°16'0 0.0
2018-Apr-08 09:30N 45°13' E 012°16'0 0.0
2018-Apr-08 09:00N 45°13' E 012°16'0 0.0
2018-Apr-08 08:30N 45°13' E 012°16'0 0.0
2018-Apr-08 08:00N 45°13' E 012°16'0 0.0
2018-Apr-08 07:30N 45°13' E 012°16'0 0.0
2018-Apr-08 07:00N 45°13' E 012°16'0 0.0
2018-Apr-08 06:30N 45°13' E 012°16'0 0.0
2018-Apr-08 06:00N 45°13' E 012°16'0 0.0
2018-Apr-08 05:30N 45°13' E 012°16'0 0.0
2018-Apr-08 05:00N 45°13' E 012°16'0 0.0
2018-Apr-08 04:30N 45°13' E 012°16'0 0.0
2018-Apr-08 04:00N 45°13' E 012°16'0 0.0
2018-Apr-08 03:30N 45°13' E 012°16'0 0.0
2018-Apr-08 03:00N 45°13' E 012°16'0 0.0
2018-Apr-08 02:27N 45°13' E 012°16'0 0.0
2018-Apr-08 02:00N 45°13' E 012°16'0 0.0
2018-Apr-08 01:27N 45°13' E 012°16'0 0.0
2018-Apr-08 00:57N 45°13' E 012°16'0 0.0
2018-Apr-08 00:27N 45°13' E 012°16'0 0.0
2018-Apr-07 23:57N 45°13' E 012°16'0 0.0
2018-Apr-07 23:27N 45°13' E 012°16'0 0.0
2018-Apr-07 22:57N 45°13' E 012°16'0 0.0
2018-Apr-07 22:27N 45°13' E 012°16'0 0.0
2018-Apr-07 21:48N 45°13' E 012°16'0 0.0
2018-Apr-07 21:27N 45°13' E 012°16'0 0.0
2018-Apr-07 20:57N 45°13' E 012°16'0 0.0
2018-Apr-07 20:27N 45°13' E 012°16'0 0.0
2018-Apr-07 19:57N 45°13' E 012°16'0 0.0
2018-Apr-07 19:27N 45°13' E 012°16'0 0.0
2018-Apr-07 18:51N 45°13' E 012°16'0 0.0
2018-Apr-07 18:30N 45°13' E 012°16'0 0.0
2018-Apr-07 18:00N 45°13' E 012°16'0 0.0
2018-Apr-07 17:30N 45°13' E 012°16'0 0.0
2018-Apr-07 17:00N 45°13' E 012°16'0 0.0
2018-Apr-07 16:30N 45°13' E 012°16'0 0.0
2018-Apr-07 16:00N 45°13' E 012°16'0 0.0
2018-Apr-07 15:30N 45°13' E 012°16'0 0.0
2018-Apr-07 15:00N 45°13' E 012°16'0 0.0
2018-Apr-07 14:30N 45°13' E 012°16'0 0.0
2018-Apr-07 14:00N 45°13' E 012°16'0 0.0
2018-Apr-07 13:30N 45°13' E 012°16'0 0.0
2018-Apr-07 13:00N 45°13' E 012°16'0 0.0
2018-Apr-07 12:30N 45°13' E 012°16'0 0.0
2018-Apr-07 12:00N 45°13' E 012°16'0 0.0
2018-Apr-07 11:30N 45°13' E 012°16'0 0.0
2018-Apr-07 11:00N 45°13' E 012°16'0 0.0
2018-Apr-07 10:30N 45°13' E 012°16'0 0.0
2018-Apr-07 10:00N 45°13' E 012°16'0 0.0
2018-Apr-07 09:30N 45°13' E 012°16'0 0.0
2018-Apr-07 09:00N 45°13' E 012°16'0 0.0
2018-Apr-07 08:30N 45°13' E 012°16'0 0.0
2018-Apr-07 08:00N 45°13' E 012°16'0 0.0
2018-Apr-07 07:30N 45°13' E 012°16'0 0.0
2018-Apr-07 07:00N 45°13' E 012°16'0 0.0
2018-Apr-07 06:30N 45°13' E 012°16'0 0.0
2018-Apr-07 06:00N 45°13' E 012°16'0 0.0
2018-Apr-07 05:30N 45°13' E 012°16'0 0.0
2018-Apr-07 05:00N 45°13' E 012°16'0 0.0
2018-Apr-07 04:30N 45°13' E 012°16'0 0.0
2018-Apr-07 04:00N 45°13' E 012°16'0 0.0
2018-Apr-07 03:30N 45°13' E 012°16'0 0.0
2018-Apr-07 02:57N 45°13' E 012°16'0 0.0
2018-Apr-07 02:30N 45°13' E 012°16'0 0.0
2018-Apr-07 02:00N 45°13' E 012°16'0 0.0
2018-Apr-07 01:27N 45°13' E 012°16'0 0.0
2018-Apr-07 01:00N 45°13' E 012°16'0 0.0
2018-Apr-07 00:24N 45°13' E 012°16'0 0.0
2018-Apr-06 23:57N 45°13' E 012°16'0 0.0
2018-Apr-06 23:30N 45°13' E 012°16'0 0.0
2018-Apr-06 22:57N 45°13' E 012°16'0 0.0
2018-Apr-06 22:30N 45°13' E 012°16'0 0.0
2018-Apr-06 21:57N 45°13' E 012°16'0 0.0
2018-Apr-06 21:30N 45°13' E 012°16'0 0.0
2018-Apr-06 20:57N 45°13' E 012°16'0 0.0
2018-Apr-06 20:27N 45°13' E 012°16'0 0.0
2018-Apr-06 20:00N 45°13' E 012°16'0 0.0
2018-Apr-06 19:27N 45°13' E 012°16'0 0.0
2018-Apr-06 19:00N 45°13' E 012°16'0 0.0
2018-Apr-06 18:27N 45°13' E 012°16'0 0.0
2018-Apr-06 18:00N 45°13' E 012°16'0 0.0
2018-Apr-06 17:30N 45°13' E 012°16'0 0.0
2018-Apr-06 17:00N 45°13' E 012°16'0 0.0
2018-Apr-06 16:30N 45°13' E 012°16'0 0.0
2018-Apr-06 16:00N 45°13' E 012°16'0 0.0
2018-Apr-06 15:30N 45°13' E 012°16'0 0.0
2018-Apr-06 15:00N 45°13' E 012°16'0 0.0
2018-Apr-06 14:27N 45°13' E 012°16'0 0.0
2018-Apr-06 14:00N 45°13' E 012°16'0 0.0
2018-Apr-06 13:30N 45°13' E 012°16'0 0.0
2018-Apr-06 12:57N 45°13' E 012°16'0 0.0
2018-Apr-06 12:30N 45°13' E 012°16'0 0.0
2018-Apr-06 12:00N 45°13' E 012°16'0 0.0
2018-Apr-06 11:30N 45°13' E 012°16'0 0.2
2018-Apr-06 11:00N 45°13' E 012°16'2 5.0
2018-Apr-06 10:30N 45°14' E 012°19'2 5.0
2018-Apr-06 10:00N 45°14' E 012°22'0 0.1
2018-Apr-06 09:28N 45°15' E 012°22'0 0.0
2018-Apr-06 08:58N 45°15' E 012°22'0 0.0
2018-Apr-06 08:28N 45°15' E 012°22'0 0.0
2018-Apr-06 07:58N 45°15' E 012°22'0 0.0
2018-Apr-06 07:28N 45°15' E 012°22'0 0.0
2018-Apr-06 06:55N 45°15' E 012°22'0 0.0
2018-Apr-06 06:28N 45°15' E 012°22'0 0.0
2018-Apr-06 05:58N 45°14' E 012°22'0 0.0
2018-Apr-06 05:28N 45°14' E 012°22'0 0.0
2018-Apr-06 04:58N 45°14' E 012°22'0 0.1
2018-Apr-06 04:28N 45°14' E 012°22'0 0.1
2018-Apr-06 03:55N 45°14' E 012°22'0 0.0
2018-Apr-06 03:25N 45°14' E 012°22'0 0.0
2018-Apr-06 02:55N 45°14' E 012°22'0 0.0
2018-Apr-06 02:28N 45°14' E 012°22'0 0.0
2018-Apr-06 01:55N 45°14' E 012°22'0 0.0
2018-Apr-06 01:28N 45°14' E 012°22'0 0.0
2018-Apr-06 00:58N 45°14' E 012°22'0 0.0
2018-Apr-06 00:28N 45°14' E 012°22'0 0.0
2018-Apr-05 23:58N 45°14' E 012°22'0 0.0
2018-Apr-05 23:28N 45°14' E 012°22'0 0.1
2018-Apr-05 22:58N 45°14' E 012°22'0 0.0
2018-Apr-05 22:28N 45°15' E 012°22'0 0.0
2018-Apr-05 21:58N 45°15' E 012°22'0 0.1
2018-Apr-05 21:28N 45°15' E 012°22'0 0.0
2018-Apr-05 20:55N 45°15' E 012°22'0 0.0
2018-Apr-05 20:28N 45°15' E 012°22'0 0.2
2018-Apr-05 19:58N 45°15' E 012°22'2 5.0
2018-Apr-05 19:30N 45°14' E 012°25'  

Dump ship's entire track history